createdAt,value
2017-08-19T00:00:46.943Z,15.93
2017-08-19T00:03:15.365Z,9.17
2017-08-19T00:05:43.823Z,9.00
2017-08-19T00:08:12.300Z,12.23
2017-08-19T00:10:40.751Z,8.43
2017-08-19T00:13:09.967Z,19.60
2017-08-19T00:15:38.407Z,7.57
2017-08-19T00:18:06.826Z,8.17
2017-08-19T00:20:35.307Z,12.10
2017-08-19T00:23:03.805Z,16.73
2017-08-19T00:25:32.287Z,9.40
2017-08-19T00:28:00.734Z,13.27
2017-08-19T00:30:29.956Z,27.10
2017-08-19T00:32:58.449Z,18.60
2017-08-19T00:35:26.919Z,14.73
2017-08-19T00:37:55.414Z,15.27
2017-08-19T00:40:23.839Z,35.97
2017-08-19T00:42:52.372Z,11.37
2017-08-19T00:45:20.791Z,9.57
2017-08-19T00:47:49.332Z,8.73
2017-08-19T00:50:17.811Z,16.73
2017-08-19T00:52:46.287Z,10.80
2017-08-19T00:55:14.768Z,8.73
2017-08-19T00:57:43.255Z,8.67
2017-08-19T01:00:11.731Z,9.40
2017-08-19T01:02:40.238Z,10.43
2017-08-19T01:05:08.699Z,10.50
2017-08-19T01:07:37.143Z,9.00
2017-08-19T01:10:06.331Z,8.60
2017-08-19T01:12:34.873Z,10.93
2017-08-19T01:15:03.363Z,14.73
2017-08-19T01:17:31.839Z,12.50
2017-08-19T01:20:00.318Z,14.87
2017-08-19T01:22:28.797Z,8.20
2017-08-19T01:28:02.272Z,9.07
2017-08-19T01:30:30.712Z,11.30
2017-08-19T01:32:59.176Z,9.50
2017-08-19T01:35:27.673Z,12.10
2017-08-19T01:37:56.149Z,12.60
2017-08-19T01:40:24.597Z,14.33
2017-08-19T01:42:53.937Z,11.77
2017-08-19T01:45:22.409Z,12.17
2017-08-19T01:47:50.878Z,10.30
2017-08-19T01:50:19.372Z,13.17
2017-08-19T01:52:47.837Z,10.80
2017-08-19T01:55:16.263Z,17.93
2017-08-19T01:57:44.722Z,15.67
2017-08-19T02:00:13.189Z,11.07
2017-08-19T02:02:41.680Z,18.63
2017-08-19T02:05:10.161Z,13.03
2017-08-19T02:07:38.597Z,14.53
2017-08-19T02:10:07.124Z,15.83
2017-08-19T02:12:35.594Z,16.57
2017-08-19T02:15:04.058Z,19.23
2017-08-19T02:17:33.298Z,16.33
2017-08-19T02:20:01.850Z,24.07
2017-08-19T02:22:30.352Z,40.37
2017-08-19T02:24:58.821Z,15.00
2017-08-19T02:27:27.316Z,19.53
2017-08-19T02:29:55.780Z,22.37
2017-08-19T02:32:24.280Z,24.47
2017-08-19T02:34:52.740Z,31.40
2017-08-19T02:37:21.174Z,30.37
2017-08-19T02:39:49.720Z,24.83
2017-08-19T02:42:18.157Z,39.37
2017-08-19T02:44:46.699Z,25.33
2017-08-19T02:47:15.182Z,32.43
2017-08-19T02:49:43.747Z,27.67
2017-08-19T02:52:12.250Z,26.50
2017-08-19T02:54:41.356Z,24.67
2017-08-19T02:57:09.783Z,29.93
2017-08-19T02:59:39.026Z,34.10
2017-08-19T03:02:07.504Z,27.30
2017-08-19T03:04:35.989Z,27.73
2017-08-19T03:07:04.444Z,28.23
2017-08-19T03:09:32.940Z,31.47
2017-08-19T03:12:01.434Z,34.30
2017-08-19T03:14:29.918Z,32.00
2017-08-19T03:16:58.488Z,29.63
2017-08-19T03:19:26.928Z,32.07
2017-08-19T03:21:56.151Z,30.27
2017-08-19T03:24:24.606Z,30.97
2017-08-19T03:26:53.832Z,39.30
2017-08-19T03:29:22.275Z,39.83
2017-08-19T03:31:50.732Z,35.10
2017-08-19T03:34:19.203Z,40.63
2017-08-19T03:36:47.684Z,34.80
2017-08-19T03:39:16.167Z,45.43
2017-08-19T03:41:44.630Z,34.03
2017-08-19T03:44:13.055Z,36.73
2017-08-19T03:46:41.606Z,26.63
2017-08-19T03:49:10.090Z,34.47
2017-08-19T03:51:38.560Z,37.47
2017-08-19T03:54:07.053Z,40.33
2017-08-19T03:56:35.521Z,34.57
2017-08-19T03:59:03.955Z,34.93
2017-08-19T04:01:32.402Z,32.73
2017-08-19T04:04:00.876Z,46.23
2017-08-19T04:06:29.330Z,31.43
2017-08-19T04:08:57.787Z,30.30
2017-08-19T04:11:26.316Z,27.20
2017-08-19T04:13:54.815Z,39.77
2017-08-19T04:16:23.285Z,25.67
2017-08-19T04:18:51.775Z,27.50
2017-08-19T04:21:20.239Z,35.40
2017-08-19T04:23:48.738Z,29.17
2017-08-19T04:26:17.220Z,39.23
2017-08-19T04:28:45.692Z,29.43
2017-08-19T04:31:14.168Z,34.90
2017-08-19T04:33:42.620Z,26.30
2017-08-19T04:36:11.820Z,30.03
2017-08-19T04:38:41.156Z,31.23
2017-08-19T04:41:09.637Z,29.73
2017-08-19T04:43:38.105Z,28.43
2017-08-19T04:46:06.611Z,20.57
2017-08-19T04:48:35.068Z,35.43
2017-08-19T04:51:03.509Z,35.20
2017-08-19T04:53:32.051Z,25.30
2017-08-19T04:56:00.522Z,21.63
2017-08-19T04:58:28.956Z,29.80
2017-08-19T05:00:57.483Z,36.80
2017-08-19T05:03:25.976Z,29.60
2017-08-19T05:05:54.444Z,26.23
2017-08-19T05:08:22.947Z,20.73
2017-08-19T05:10:51.404Z,20.27
2017-08-19T05:13:19.900Z,17.83
2017-08-19T05:15:48.386Z,22.87
2017-08-19T05:18:16.871Z,16.97
2017-08-19T05:20:45.342Z,23.60
2017-08-19T05:23:13.838Z,29.40
2017-08-19T05:25:42.637Z,13.93
2017-08-19T05:28:11.082Z,14.00
2017-08-19T05:30:39.593Z,19.40
2017-08-19T05:33:08.022Z,19.63
2017-08-19T05:35:36.539Z,22.93
2017-08-19T05:38:04.968Z,15.23
2017-08-19T05:40:33.438Z,18.03
2017-08-19T05:43:01.863Z,10.07
2017-08-19T05:45:30.322Z,19.43
2017-08-19T05:47:58.755Z,19.07
2017-08-19T05:50:27.187Z,11.90
2017-08-19T05:52:56.516Z,18.60
2017-08-19T05:55:25.024Z,14.40
2017-08-19T05:57:53.491Z,23.03
2017-08-19T06:00:21.982Z,19.43
2017-08-19T06:02:50.461Z,24.23
2017-08-19T06:05:18.892Z,15.40
2017-08-19T06:07:47.850Z,14.03
2017-08-19T06:10:16.280Z,17.40
2017-08-19T06:12:45.626Z,17.23
2017-08-19T06:15:14.075Z,17.83
2017-08-19T06:17:42.542Z,14.80
2017-08-19T06:20:12.006Z,18.67
2017-08-19T06:22:40.554Z,11.33
2017-08-19T06:25:08.975Z,14.63
2017-08-19T06:27:37.420Z,11.37
2017-08-19T06:30:05.860Z,12.23
2017-08-19T06:32:34.324Z,15.83
2017-08-19T06:35:02.778Z,12.37
2017-08-19T06:37:31.259Z,14.97
2017-08-19T06:39:59.746Z,11.67
2017-08-19T06:42:28.221Z,19.97
2017-08-19T06:44:57.336Z,10.60
2017-08-19T06:47:25.902Z,14.30
2017-08-19T06:49:54.372Z,19.90
2017-08-19T06:52:22.842Z,10.70
2017-08-19T06:54:51.352Z,16.97
2017-08-19T06:57:19.838Z,15.20
2017-08-19T06:59:48.317Z,11.37
2017-08-19T07:02:16.784Z,10.50
2017-08-19T07:04:45.240Z,9.90
2017-08-19T07:07:13.766Z,8.40
2017-08-19T07:09:42.230Z,10.83
2017-08-19T07:12:10.657Z,8.53
2017-08-19T07:14:39.115Z,7.90
2017-08-19T07:17:07.572Z,6.57
2017-08-19T07:19:36.038Z,12.20
2017-08-19T07:22:04.537Z,13.77
2017-08-19T07:24:33.034Z,18.70
2017-08-19T07:27:01.464Z,8.43
2017-08-19T07:29:30.710Z,8.60
2017-08-19T07:31:59.150Z,15.43
2017-08-19T07:34:28.383Z,14.13
2017-08-19T07:36:56.807Z,27.30
2017-08-19T07:39:25.252Z,8.33
2017-08-19T07:41:53.739Z,10.10
2017-08-19T07:44:22.203Z,8.87
2017-08-19T07:46:50.623Z,6.13
2017-08-19T07:49:19.082Z,12.93
2017-08-19T07:51:47.668Z,9.23
2017-08-19T07:54:16.109Z,11.07
2017-08-19T07:56:45.428Z,11.03
2017-08-19T07:59:13.930Z,7.93
2017-08-19T08:01:42.407Z,12.30
2017-08-19T08:04:10.870Z,16.67
2017-08-19T08:06:39.364Z,21.23
2017-08-19T08:09:07.853Z,4.40
2017-08-19T08:11:36.329Z,6.13
2017-08-19T08:14:04.799Z,6.47
2017-08-19T08:16:33.244Z,5.60
2017-08-19T08:19:01.783Z,2.60
2017-08-19T08:21:30.263Z,8.70
2017-08-19T08:23:58.766Z,5.53
2017-08-19T08:26:27.234Z,9.77
2017-08-19T08:28:56.118Z,5.80
2017-08-19T08:31:24.586Z,16.60
2017-08-19T08:33:53.082Z,14.43
2017-08-19T08:36:21.556Z,2.83
2017-08-19T08:38:50.051Z,2.80
2017-08-19T08:41:18.521Z,7.23
2017-08-19T08:43:46.970Z,2.70
2017-08-19T08:46:16.173Z,9.17
2017-08-19T08:48:45.500Z,8.10
2017-08-19T08:51:13.928Z,3.60
2017-08-19T08:53:42.468Z,14.97
2017-08-19T08:56:10.948Z,2.97
2017-08-19T08:58:39.396Z,3.80
2017-08-19T09:01:08.628Z,5.63
2017-08-19T09:03:37.111Z,14.50
2017-08-19T09:06:05.544Z,9.60
2017-08-19T09:08:34.001Z,7.70
2017-08-19T09:11:02.456Z,3.67
2017-08-19T09:13:30.932Z,4.40
2017-08-19T09:15:59.417Z,5.83
2017-08-19T09:18:27.895Z,7.80
2017-08-19T09:20:56.325Z,5.13
2017-08-19T09:23:24.871Z,4.63
2017-08-19T09:25:53.354Z,8.90
2017-08-19T09:28:21.825Z,5.10
2017-08-19T09:30:50.261Z,5.37
2017-08-19T09:33:18.798Z,5.97
2017-08-19T09:35:47.273Z,4.90
2017-08-19T09:38:15.756Z,2.93
2017-08-19T09:40:44.183Z,4.30
2017-08-19T09:43:12.645Z,11.73
2017-08-19T09:45:41.096Z,2.00
2017-08-19T09:48:09.544Z,4.40
2017-08-19T09:50:38.781Z,3.70
2017-08-19T09:53:07.252Z,1.97
2017-08-19T09:55:35.745Z,5.27
2017-08-19T09:58:04.231Z,5.00
2017-08-19T10:00:32.704Z,4.37
2017-08-19T10:03:01.127Z,5.57
2017-08-19T10:05:29.681Z,6.73
2017-08-19T10:07:58.161Z,7.60
2017-08-19T10:13:32.696Z,3.10
2017-08-19T10:16:01.191Z,3.73
2017-08-19T10:18:29.660Z,4.90
2017-08-19T10:20:58.089Z,5.40
2017-08-19T10:23:26.536Z,4.30
2017-08-19T10:25:55.004Z,5.53
2017-08-19T10:28:23.495Z,2.63
2017-08-19T10:30:51.957Z,7.63
2017-08-19T10:33:20.384Z,5.07
2017-08-19T10:35:48.928Z,3.20
2017-08-19T10:38:17.366Z,4.00
2017-08-19T10:40:45.896Z,3.67
2017-08-19T10:43:14.319Z,2.60
2017-08-19T10:45:42.782Z,2.33
2017-08-19T10:48:11.246Z,7.03
2017-08-19T10:50:39.726Z,5.43
2017-08-19T10:53:08.200Z,3.80
2017-08-19T10:55:36.640Z,2.20
2017-08-19T10:58:05.875Z,5.33
2017-08-19T11:00:34.361Z,8.53
2017-08-19T11:03:02.792Z,2.70
2017-08-19T11:05:31.246Z,5.73
2017-08-19T11:07:59.713Z,8.70
2017-08-19T11:10:28.169Z,6.50
2017-08-19T11:12:56.667Z,6.13
2017-08-19T11:15:25.166Z,3.83
2017-08-19T11:17:53.620Z,4.27
2017-08-19T11:20:22.121Z,10.13
2017-08-19T11:22:50.548Z,1.80
2017-08-19T11:25:19.005Z,1.37
2017-08-19T11:27:47.450Z,6.73
2017-08-19T11:30:15.950Z,4.17
2017-08-19T11:32:44.419Z,6.10
2017-08-19T11:35:12.853Z,6.40
2017-08-19T11:37:41.299Z,3.57
2017-08-19T11:40:09.728Z,4.03
2017-08-19T11:42:38.963Z,6.93
2017-08-19T11:45:07.401Z,12.80
2017-08-19T11:47:35.918Z,5.23
2017-08-19T11:50:04.425Z,7.13
2017-08-19T11:52:32.903Z,2.30
2017-08-19T11:55:01.375Z,6.20
2017-08-19T11:57:29.854Z,6.73
2017-08-19T11:59:58.275Z,11.43
2017-08-19T12:02:26.726Z,6.87
2017-08-19T12:04:55.199Z,5.93
2017-08-19T12:07:23.683Z,10.03
2017-08-19T12:09:52.118Z,3.80
2017-08-19T12:12:20.659Z,11.23
2017-08-19T12:14:49.123Z,3.77
2017-08-19T12:17:17.613Z,4.83
2017-08-19T12:19:46.070Z,15.23
2017-08-19T12:22:14.576Z,11.13
2017-08-19T12:24:43.065Z,12.20
2017-08-19T12:27:11.546Z,6.57
2017-08-19T12:29:40.010Z,7.43
2017-08-19T12:32:08.430Z,10.93
2017-08-19T12:34:36.991Z,2.30
2017-08-19T12:37:05.415Z,7.80
2017-08-19T12:39:33.972Z,7.13
2017-08-19T12:42:02.431Z,3.63
2017-08-19T12:44:30.893Z,8.00
2017-08-19T12:46:59.396Z,2.70
2017-08-19T12:49:27.871Z,8.90
2017-08-19T12:51:56.360Z,11.53
2017-08-19T12:54:24.812Z,4.80
2017-08-19T12:56:54.032Z,3.47
2017-08-19T12:59:22.519Z,2.37
2017-08-19T13:01:50.949Z,3.57
2017-08-19T13:04:19.480Z,3.73
2017-08-19T13:06:47.959Z,5.80
2017-08-19T13:09:16.449Z,7.83
2017-08-19T13:11:44.928Z,4.10
2017-08-19T13:14:13.376Z,5.90
2017-08-19T13:16:42.625Z,21.40
2017-08-19T13:19:11.089Z,9.77
2017-08-19T13:21:39.529Z,3.10
2017-08-19T13:24:08.011Z,11.83
2017-08-19T13:26:36.546Z,3.00
2017-08-19T13:29:05.011Z,2.47
2017-08-19T13:31:33.460Z,7.37
2017-08-19T13:34:02.681Z,12.80
2017-08-19T13:36:31.291Z,8.40
2017-08-19T13:38:59.749Z,12.63
2017-08-19T13:41:28.212Z,1.93
2017-08-19T13:43:57.425Z,5.10
2017-08-19T13:46:25.939Z,11.27
2017-08-19T13:48:55.088Z,7.33
2017-08-19T13:51:24.418Z,19.53
2017-08-19T13:53:52.858Z,3.33
2017-08-19T13:56:21.308Z,3.80
2017-08-19T13:58:49.757Z,8.40
2017-08-19T14:01:18.221Z,4.03
2017-08-19T14:03:47.548Z,7.33
2017-08-19T14:06:16.026Z,4.13
2017-08-19T14:08:44.532Z,3.53
2017-08-19T14:11:12.991Z,3.07
2017-08-19T14:13:41.479Z,3.80
2017-08-19T14:16:09.979Z,5.67
2017-08-19T14:18:38.856Z,5.50
2017-08-19T14:21:07.346Z,4.20
2017-08-19T14:23:35.828Z,8.73
2017-08-19T14:26:04.294Z,7.53
2017-08-19T14:28:32.784Z,1.83
2017-08-19T14:31:01.233Z,6.17
2017-08-19T14:33:30.432Z,4.90
2017-08-19T14:35:59.759Z,6.10
2017-08-19T14:38:28.247Z,3.03
2017-08-19T14:40:56.738Z,8.00
2017-08-19T14:43:25.328Z,4.47
2017-08-19T14:45:53.765Z,9.30
2017-08-19T14:48:22.989Z,4.93
2017-08-19T14:50:51.483Z,3.00
2017-08-19T14:53:19.970Z,7.33
2017-08-19T14:55:48.452Z,8.40
2017-08-19T14:58:16.910Z,8.50
2017-08-19T15:00:45.391Z,2.97
2017-08-19T15:03:13.874Z,6.80
2017-08-19T15:05:42.304Z,10.37
2017-08-19T15:08:10.844Z,6.93
2017-08-19T15:10:39.327Z,2.03
2017-08-19T15:13:07.764Z,3.77
2017-08-19T15:15:36.305Z,8.73
2017-08-19T15:18:04.765Z,5.27
2017-08-19T15:20:33.256Z,3.17
2017-08-19T15:23:01.740Z,5.40
2017-08-19T15:25:30.164Z,5.03
2017-08-19T15:27:58.614Z,4.30
2017-08-19T15:30:27.053Z,2.70
2017-08-19T15:32:56.384Z,8.10
2017-08-19T15:35:24.826Z,7.70
2017-08-19T15:37:54.066Z,6.07
2017-08-19T15:40:22.516Z,6.93
2017-08-19T15:42:51.758Z,7.60
2017-08-19T15:45:20.222Z,8.83
2017-08-19T15:47:48.648Z,6.60
2017-08-19T15:50:17.187Z,3.00
2017-08-19T15:52:45.682Z,9.33
2017-08-19T15:55:14.158Z,7.83
2017-08-19T15:57:42.596Z,10.33
2017-08-19T16:00:11.826Z,9.13
2017-08-19T16:02:40.261Z,3.53
2017-08-19T16:05:08.786Z,4.33
2017-08-19T16:07:37.292Z,4.73
2017-08-19T16:10:05.772Z,12.87
2017-08-19T16:12:34.234Z,4.80
2017-08-19T16:15:02.678Z,6.53
2017-08-19T16:17:31.109Z,2.67
2017-08-19T16:19:59.592Z,2.80
2017-08-19T16:22:28.030Z,8.63
2017-08-19T16:24:57.286Z,2.67
2017-08-19T16:27:25.764Z,3.80
2017-08-19T16:29:54.246Z,8.87
2017-08-19T16:32:22.689Z,19.50
2017-08-19T16:34:52.012Z,6.47
2017-08-19T16:37:20.500Z,7.37
2017-08-19T16:39:48.971Z,3.83
2017-08-19T16:42:17.470Z,3.97
2017-08-19T16:44:45.900Z,11.67
2017-08-19T16:47:15.155Z,2.60
2017-08-19T16:49:43.590Z,4.07
2017-08-19T16:52:12.919Z,8.10
2017-08-19T16:54:41.408Z,4.60
2017-08-19T16:57:09.868Z,8.43
2017-08-19T16:59:38.380Z,7.63
2017-08-19T17:02:06.843Z,8.17
2017-08-19T17:04:35.272Z,7.33
2017-08-19T17:07:03.825Z,5.73
2017-08-19T17:09:32.261Z,6.77
2017-08-19T17:12:01.501Z,5.70
2017-08-19T17:14:29.986Z,6.20
2017-08-19T17:16:58.470Z,6.10
2017-08-19T17:19:26.944Z,9.17
2017-08-19T17:21:55.420Z,5.47
2017-08-19T17:24:23.903Z,6.60
2017-08-19T17:26:52.352Z,8.13
2017-08-19T17:29:21.557Z,9.67
2017-08-19T17:31:50.780Z,11.07
2017-08-19T17:34:19.272Z,4.50
2017-08-19T17:36:47.757Z,12.83
2017-08-19T17:39:16.223Z,5.00
2017-08-19T17:41:44.723Z,9.00
2017-08-19T17:44:13.208Z,13.03
2017-08-19T17:46:41.666Z,6.20
2017-08-19T17:49:10.174Z,11.97
2017-08-19T17:51:38.645Z,6.60
2017-08-19T17:54:07.124Z,8.60
2017-08-19T17:56:35.618Z,4.50
2017-08-19T17:59:04.071Z,14.17
2017-08-19T18:01:32.558Z,7.73
2017-08-19T18:04:01.065Z,6.23
2017-08-19T18:06:29.501Z,17.73
2017-08-19T18:08:58.793Z,6.20
2017-08-19T18:11:28.033Z,6.00
2017-08-19T18:13:56.494Z,6.63
2017-08-19T18:16:24.986Z,9.07
2017-08-19T18:18:53.445Z,12.80
2017-08-19T18:21:22.676Z,7.93
2017-08-19T18:23:51.119Z,6.60
2017-08-19T18:26:20.355Z,14.90
2017-08-19T18:28:48.813Z,6.13
2017-08-19T18:31:18.045Z,5.90
2017-08-19T18:33:46.517Z,3.30
2017-08-19T18:36:14.990Z,10.43
2017-08-19T18:38:43.496Z,9.17
2017-08-19T18:41:11.956Z,15.63
2017-08-19T18:43:40.379Z,9.40
2017-08-19T18:46:08.941Z,20.40
2017-08-19T18:48:37.444Z,6.93
2017-08-19T18:51:06.008Z,21.27
2017-08-19T18:53:34.490Z,18.07
2017-08-19T18:56:02.962Z,12.50
2017-08-19T18:58:31.440Z,9.57
2017-08-19T19:00:59.959Z,12.00
2017-08-19T19:03:28.400Z,13.77
2017-08-19T19:05:56.885Z,5.80
2017-08-19T19:08:25.330Z,12.20
2017-08-19T19:10:54.659Z,5.33
2017-08-19T19:13:23.085Z,6.40
2017-08-19T19:15:51.633Z,4.67
2017-08-19T19:18:20.058Z,12.20
2017-08-19T19:20:48.579Z,8.33
2017-08-19T19:23:17.080Z,14.03
2017-08-19T19:25:45.561Z,7.03
2017-08-19T19:28:13.979Z,4.50
2017-08-19T19:30:42.532Z,11.47
2017-08-19T19:33:11.023Z,10.67
2017-08-19T19:35:40.017Z,10.13
2017-08-19T19:38:08.555Z,12.53
2017-08-19T19:40:37.780Z,5.23
2017-08-19T19:43:06.262Z,8.50
2017-08-19T19:45:34.701Z,6.00
2017-08-19T19:48:03.239Z,9.30
2017-08-19T19:50:31.724Z,3.93
2017-08-19T19:53:00.186Z,6.00
2017-08-19T19:55:28.670Z,5.43
2017-08-19T19:57:57.160Z,7.30
2017-08-19T20:00:25.630Z,10.33
2017-08-19T20:02:54.098Z,10.23
2017-08-19T20:05:22.595Z,11.83
2017-08-19T20:07:51.099Z,7.60
2017-08-19T20:10:19.574Z,7.43
2017-08-19T20:12:48.044Z,6.40
2017-08-19T20:15:16.528Z,9.00
2017-08-19T20:17:44.984Z,3.60
2017-08-19T20:20:14.181Z,15.43
2017-08-19T20:22:43.512Z,5.20
2017-08-19T20:25:11.949Z,3.33
2017-08-19T20:27:40.383Z,13.87
2017-08-19T20:30:08.836Z,5.73
2017-08-19T20:32:37.386Z,5.27
2017-08-19T20:35:05.915Z,4.63
2017-08-19T20:37:34.335Z,14.03
2017-08-19T20:40:02.794Z,6.77
2017-08-19T20:42:31.233Z,7.13
2017-08-19T20:45:00.564Z,11.03
2017-08-19T20:47:29.001Z,5.07
2017-08-19T20:49:57.532Z,8.90
2017-08-19T20:52:26.019Z,5.50
2017-08-19T20:54:54.480Z,9.00
2017-08-19T20:57:22.980Z,6.93
2017-08-19T20:59:51.467Z,7.33
2017-08-19T21:02:19.946Z,3.80
2017-08-19T21:04:48.421Z,6.80
2017-08-19T21:07:16.900Z,8.33
2017-08-19T21:09:45.390Z,11.23
2017-08-19T21:12:13.864Z,8.03
2017-08-19T21:14:42.349Z,9.00
2017-08-19T21:17:10.842Z,4.40
2017-08-19T21:19:39.413Z,4.67
2017-08-19T21:22:07.906Z,5.50
2017-08-19T21:24:36.391Z,14.93
2017-08-19T21:27:04.970Z,8.60
2017-08-19T21:29:33.439Z,9.67
2017-08-19T21:32:01.934Z,18.20
2017-08-19T21:34:30.403Z,11.93
2017-08-19T21:36:58.888Z,6.30
2017-08-19T21:39:27.379Z,10.53
2017-08-19T21:41:55.835Z,8.60
2017-08-19T21:44:24.326Z,7.73
2017-08-19T21:46:52.831Z,7.47
2017-08-19T21:49:21.313Z,12.60
2017-08-19T21:51:49.896Z,10.53
2017-08-19T21:54:18.368Z,5.77
2017-08-19T21:56:46.816Z,14.90
2017-08-19T21:59:16.131Z,10.90
2017-08-19T22:01:44.594Z,7.40
2017-08-19T22:04:13.792Z,6.83
2017-08-19T22:06:43.041Z,7.80
2017-08-19T22:09:12.243Z,5.23
2017-08-19T22:11:40.721Z,8.57
2017-08-19T22:14:09.164Z,11.13
2017-08-19T22:16:38.388Z,11.77
2017-08-19T22:19:06.872Z,8.93
2017-08-19T22:21:35.362Z,7.60
2017-08-19T22:24:03.819Z,13.47
2017-08-19T22:26:32.327Z,8.70
2017-08-19T22:29:00.784Z,9.30
2017-08-19T22:31:29.211Z,10.53
2017-08-19T22:33:57.760Z,11.03
2017-08-19T22:36:26.193Z,10.30
2017-08-19T22:38:54.724Z,6.37
2017-08-19T22:41:23.198Z,11.83
2017-08-19T22:43:51.692Z,12.47
2017-08-19T22:46:20.168Z,7.70
2017-08-19T22:48:48.656Z,5.93
2017-08-19T22:51:17.136Z,5.60
2017-08-19T22:53:45.616Z,7.50
2017-08-19T22:56:14.040Z,5.40
2017-08-19T22:58:42.499Z,10.60
2017-08-19T23:01:10.955Z,6.03
2017-08-19T23:03:39.404Z,6.17
2017-08-19T23:06:08.631Z,5.53
2017-08-19T23:08:37.120Z,4.87
2017-08-19T23:11:05.548Z,6.17
2017-08-19T23:13:34.084Z,6.60
2017-08-19T23:16:02.568Z,10.37
2017-08-19T23:18:31.042Z,4.63
2017-08-19T23:20:59.535Z,7.63
2017-08-19T23:23:28.016Z,6.27
2017-08-19T23:25:56.496Z,8.90
2017-08-19T23:28:24.975Z,5.60
2017-08-19T23:30:53.428Z,5.70
2017-08-19T23:33:22.655Z,8.97
2017-08-19T23:35:51.136Z,5.83
2017-08-19T23:38:19.563Z,7.87
2017-08-19T23:40:48.104Z,8.93
2017-08-19T23:43:16.584Z,13.43
2017-08-19T23:45:45.069Z,6.27
2017-08-19T23:48:13.552Z,6.30
2017-08-19T23:50:42.037Z,5.13
2017-08-19T23:53:10.507Z,7.53
2017-08-19T23:55:38.999Z,10.10
2017-08-19T23:58:07.429Z,5.70
